Time;durP1;ratioP1;P1;durP2;ratioP2;P2;SDS_P1;SDS_P2;PMS_P1;PMS_P2;Temp;Humidity;BMP_temperature;BMP_pressure;BME280_temperature;BME280_humidity;BME280_pressure;Samples;Min_cycle;Max_cycle;Signal;HPM_P1;HPM_P2
2022/03/07 00:01:25;;;;;;;5.93;1.27;;;;;;;;;;4962105;28;20049;-73
2022/03/07 00:03:52;;;;;;;2.55;1.33;;;;;;;;;;4961847;28;20053;-71
2022/03/07 00:06:19;;;;;;;2.22;1.27;;;;;;;;;;4974626;28;20511;-71
2022/03/07 00:08:45;;;;;;;4.07;1.33;;;;;;;;;;4960074;28;20137;-72
2022/03/07 00:11:12;;;;;;;4.32;1.40;;;;;;;;;;4965016;28;20083;-72
2022/03/07 00:13:39;;;;;;;2.67;1.40;;;;;;;;;;4960971;28;20063;-72
2022/03/07 00:16:05;;;;;;;9.75;1.50;;;;;;;;;;4962756;28;20138;-72
2022/03/07 00:18:39;;;;;;;1.67;1.20;;;;;;;;;;4963393;28;20055;-72
2022/03/07 00:21:06;;;;;;;3.65;1.10;;;;;;;;;;4963297;28;20149;-73
2022/03/07 00:23:33;;;;;;;3.28;1.45;;;;;;;;;;4965379;28;20457;-74
2022/03/07 00:26:06;;;;;;;2.75;1.55;;;;;;;;;;4960023;28;20134;-72
2022/03/07 00:28:33;;;;;;;5.07;1.33;;;;;;;;;;4961895;28;20081;-71
2022/03/07 00:30:59;;;;;;;2.07;1.23;;;;;;;;;;4967824;28;20143;-72
2022/03/07 00:33:27;;;;;;;3.00;1.70;;;;;;;;;;4963184;28;20061;-71
2022/03/07 00:35:53;;;;;;;4.55;1.35;;;;;;;;;;4962639;28;20137;-72
2022/03/07 00:38:20;;;;;;;1.33;1.23;;;;;;;;;;4962430;28;20129;-71
2022/03/07 00:40:52;;;;;;;2.80;1.50;;;;;;;;;;4961506;28;20151;-71
2022/03/07 00:43:21;;;;;;;2.13;1.45;;;;;;;;;;4963919;28;20133;-71
2022/03/07 00:45:47;;;;;;;3.30;1.40;;;;;;;;;;4967421;28;20085;-71
2022/03/07 00:48:14;;;;;;;1.50;0.95;;;;;;;;;;4966531;28;20051;-71
2022/03/07 00:50:42;;;;;;;1.92;1.20;;;;;;;;;;4962726;28;20183;-71
2022/03/07 00:53:15;;;;;;;4.95;1.77;;;;;;;;;;4962319;28;20093;-72
2022/03/07 00:55:42;;;;;;;2.72;1.45;;;;;;;;;;4964544;28;20078;-73
2022/03/07 00:58:11;;;;;;;3.50;1.27;;;;;;;;;;4961245;28;20054;-74
2022/03/07 01:00:38;;;;;;;3.58;1.08;;;;;;;;;;4964194;28;20174;-74
2022/03/07 01:03:14;;;;;;;3.28;1.67;;;;;;;;;;4958199;28;20404;-74
2022/03/07 01:05:41;;;;;;;2.15;1.23;;;;;;;;;;4961803;28;20047;-73
2022/03/07 01:08:08;;;;;;;5.23;1.33;;;;;;;;;;4961564;28;20470;-74
2022/03/07 01:10:36;;;;;;;1.98;1.27;;;;;;;;;;4957453;28;20051;-74
2022/03/07 01:13:03;;;;;;;1.45;1.00;;;;;;;;;;4961572;28;20130;-74
2022/03/07 01:15:29;;;;;;;1.80;1.20;;;;;;;;;;4958906;28;20122;-74
2022/03/07 01:18:04;;;;;;;6.00;1.13;;;;;;;;;;4943336;28;20051;-74
2022/03/07 01:20:31;;;;;;;2.33;1.30;;;;;;;;;;4936909;28;20046;-72
2022/03/07 01:22:57;;;;;;;2.55;1.20;;;;;;;;;;4941291;28;20179;-74
2022/03/07 01:25:24;;;;;;;3.63;1.20;;;;;;;;;;4940852;28;20080;-74
2022/03/07 01:27:51;;;;;;;2.17;0.85;;;;;;;;;;4944956;28;20326;-74
2022/03/07 01:30:20;;;;;;;3.65;1.30;;;;;;;;;;4959818;28;20091;-74
2022/03/07 01:32:48;;;;;;;2.08;1.20;;;;;;;;;;4959869;28;20095;-74
2022/03/07 01:35:14;;;;;;;3.55;1.38;;;;;;;;;;4959303;28;20039;-75
2022/03/07 01:37:41;;;;;;;1.02;1.00;;;;;;;;;;4961576;28;20082;-72
2022/03/07 01:40:14;;;;;;;3.38;1.48;;;;;;;;;;4961358;28;20121;-72
2022/03/07 01:42:41;;;;;;;1.63;1.40;;;;;;;;;;4960261;28;20146;-72
2022/03/07 01:45:08;;;;;;;1.40;1.17;;;;;;;;;;4965109;28;20145;-72
2022/03/07 01:47:35;;;;;;;5.95;1.50;;;;;;;;;;4965745;28;20090;-74
2022/03/07 01:50:03;;;;;;;1.40;1.17;;;;;;;;;;4965019;28;20162;-72
2022/03/07 01:52:29;;;;;;;5.18;1.85;;;;;;;;;;4961016;28;20385;-72
2022/03/07 01:54:57;;;;;;;3.95;1.40;;;;;;;;;;4965856;28;20086;-72
2022/03/07 01:57:24;;;;;;;3.28;1.73;;;;;;;;;;4963250;28;20165;-74
2022/03/07 01:59:50;;;;;;;4.93;2.67;;;;;;;;;;4963853;28;20089;-72
2022/03/07 02:02:24;;;;;;;3.50;1.70;;;;;;;;;;4962339;28;20137;-74
2022/03/07 02:04:51;;;;;;;4.53;1.90;;;;;;;;;;4961616;28;20050;-74
2022/03/07 02:07:18;;;;;;;3.05;1.20;;;;;;;;;;4961648;28;20078;-74
2022/03/07 02:09:49;;;;;;;3.33;1.90;;;;;;;;;;4962258;28;20047;-74
2022/03/07 02:12:15;;;;;;;3.17;1.42;;;;;;;;;;4962303;28;20134;-72
2022/03/07 02:14:42;;;;;;;3.97;1.73;;;;;;;;;;4963120;28;20137;-74
2022/03/07 02:17:12;;;;;;;1.95;1.48;;;;;;;;;;4966305;28;20071;-74
2022/03/07 02:19:38;;;;;;;12.53;2.17;;;;;;;;;;4959227;28;20645;-74
2022/03/07 02:22:05;;;;;;;5.00;1.63;;;;;;;;;;4961195;28;20089;-74
2022/03/07 02:24:38;;;;;;;3.45;1.65;;;;;;;;;;4961891;28;20340;-74
2022/03/07 02:27:06;;;;;;;4.57;1.88;;;;;;;;;;4958604;28;20046;-75
2022/03/07 02:29:33;;;;;;;6.68;1.80;;;;;;;;;;4960863;28;20566;-74
2022/03/07 02:32:02;;;;;;;2.92;1.20;;;;;;;;;;4938483;28;20090;-75
2022/03/07 02:34:28;;;;;;;2.63;1.20;;;;;;;;;;4960317;28;20138;-74
2022/03/07 02:36:54;;;;;;;6.85;1.80;;;;;;;;;;4958124;28;20138;-74
2022/03/07 02:39:21;;;;;;;3.80;1.45;;;;;;;;;;4961962;28;20141;-74
2022/03/07 02:41:48;;;;;;;2.08;1.33;;;;;;;;;;4958335;28;20150;-74
2022/03/07 02:44:14;;;;;;;3.25;1.40;;;;;;;;;;4959446;28;20134;-74
2022/03/07 02:46:45;;;;;;;7.77;1.70;;;;;;;;;;4958613;28;20055;-74
2022/03/07 02:49:11;;;;;;;5.13;1.98;;;;;;;;;;4957726;28;20051;-74
2022/03/07 02:51:38;;;;;;;10.57;1.83;;;;;;;;;;4960312;28;20510;-74
2022/03/07 02:54:04;;;;;;;8.40;1.70;;;;;;;;;;4959640;28;20070;-74
2022/03/07 02:56:31;;;;;;;2.15;1.42;;;;;;;;;;4957387;28;20543;-74
2022/03/07 02:58:57;;;;;;;1.50;1.30;;;;;;;;;;4956965;28;20181;-74
2022/03/07 03:01:24;;;;;;;3.90;1.60;;;;;;;;;;4960769;28;20146;-74
2022/03/07 03:03:51;;;;;;;3.45;1.73;;;;;;;;;;4962651;28;20050;-74
2022/03/07 03:06:17;;;;;;;2.50;1.63;;;;;;;;;;4956004;28;20569;-74
2022/03/07 03:08:48;;;;;;;6.00;2.15;;;;;;;;;;4960664;28;20047;-74
2022/03/07 03:11:14;;;;;;;6.32;1.60;;;;;;;;;;4962170;28;20499;-74
2022/03/07 03:13:41;;;;;;;8.05;1.77;;;;;;;;;;4961826;28;20463;-74
2022/03/07 03:16:07;;;;;;;3.13;1.70;;;;;;;;;;4960582;28;20133;-74
2022/03/07 03:18:34;;;;;;;5.40;2.17;;;;;;;;;;4957064;28;20511;-74
2022/03/07 03:21:00;;;;;;;6.85;2.00;;;;;;;;;;4958764;28;20462;-75
2022/03/07 03:23:28;;;;;;;3.13;1.88;;;;;;;;;;4941160;28;20051;-74
2022/03/07 03:25:55;;;;;;;5.80;2.10;;;;;;;;;;4943325;28;20082;-74
2022/03/07 03:28:23;;;;;;;5.22;2.10;;;;;;;;;;4938552;28;20383;-75
2022/03/07 03:30:56;;;;;;;4.75;2.13;;;;;;;;;;4942288;28;20082;-74
2022/03/07 03:33:23;;;;;;;5.20;1.83;;;;;;;;;;4949648;28;20089;-74
2022/03/07 03:35:49;;;;;;;11.07;1.97;;;;;;;;;;4960897;28;20578;-74
2022/03/07 03:38:16;;;;;;;6.57;1.70;;;;;;;;;;4956146;28;20134;-75
2022/03/07 03:40:42;;;;;;;3.60;1.80;;;;;;;;;;4958823;28;20310;-74
2022/03/07 03:43:09;;;;;;;9.88;2.28;;;;;;;;;;4959244;28;20150;-74
2022/03/07 03:45:36;;;;;;;10.68;1.98;;;;;;;;;;4960579;28;20088;-74
2022/03/07 03:48:03;;;;;;;5.60;1.93;;;;;;;;;;4960261;28;20090;-74
2022/03/07 03:50:29;;;;;;;3.25;1.98;;;;;;;;;;4962828;28;20047;-74
2022/03/07 03:53:03;;;;;;;8.95;2.20;;;;;;;;;;4957675;28;20586;-74
2022/03/07 03:55:29;;;;;;;6.53;2.58;;;;;;;;;;4961494;28;20138;-74
2022/03/07 03:57:56;;;;;;;7.20;2.33;;;;;;;;;;4961307;28;20150;-74
2022/03/07 04:00:24;;;;;;;4.47;1.77;;;;;;;;;;4960169;28;20470;-75
2022/03/07 04:02:50;;;;;;;4.90;2.25;;;;;;;;;;4961626;28;20090;-74
2022/03/07 04:05:20;;;;;;;8.30;1.83;;;;;;;;;;4964935;28;20414;-74
2022/03/07 04:07:48;;;;;;;7.13;2.22;;;;;;;;;;4962538;28;20146;-74
2022/03/07 04:10:14;;;;;;;10.23;2.43;;;;;;;;;;4963799;28;20183;-75
2022/03/07 04:12:41;;;;;;;9.20;2.03;;;;;;;;;;4966063;28;20078;-74
2022/03/07 04:15:08;;;;;;;6.75;2.50;;;;;;;;;;4965656;28;20117;-74
2022/03/07 04:17:38;;;;;;;6.38;1.70;;;;;;;;;;4964424;28;20142;-74
2022/03/07 04:20:05;;;;;;;5.57;2.08;;;;;;;;;;4964266;28;20468;-74
2022/03/07 04:22:32;;;;;;;6.60;1.65;;;;;;;;;;4963155;28;20054;-74
2022/03/07 04:24:59;;;;;;;5.50;1.52;;;;;;;;;;4963795;28;20776;-74
2022/03/07 04:27:26;;;;;;;5.65;2.10;;;;;;;;;;4967250;28;20050;-74
2022/03/07 04:30:03;;;;;;;3.53;1.80;;;;;;;;;;4966795;28;20142;-74
2022/03/07 04:32:30;;;;;;;4.88;1.98;;;;;;;;;;4954872;28;20058;-74
2022/03/07 04:34:56;;;;;;;7.45;2.10;;;;;;;;;;4967370;28;20450;-74
2022/03/07 04:37:23;;;;;;;5.60;2.45;;;;;;;;;;4959480;28;20086;-74
2022/03/07 04:39:50;;;;;;;8.97;2.20;;;;;;;;;;4963877;28;20145;-74
2022/03/07 04:42:16;;;;;;;6.22;1.90;;;;;;;;;;4959140;28;20306;-74
2022/03/07 04:44:43;;;;;;;5.28;2.10;;;;;;;;;;4960063;28;20074;-74
2022/03/07 04:47:10;;;;;;;3.60;1.75;;;;;;;;;;4959259;28;20055;-74
2022/03/07 04:49:36;;;;;;;6.33;1.37;;;;;;;;;;4954215;28;20078;-74
2022/03/07 04:52:04;;;;;;;6.95;2.60;;;;;;;;;;4960951;28;20090;-74
2022/03/07 04:54:33;;;;;;;5.30;2.33;;;;;;;;;;4962204;28;20059;-74
2022/03/07 04:57:00;;;;;;;2.92;1.67;;;;;;;;;;4964015;28;20083;-74
2022/03/07 04:59:28;;;;;;;7.87;2.10;;;;;;;;;;4959326;28;20089;-74
2022/03/07 05:01:55;;;;;;;12.98;2.78;;;;;;;;;;4962664;28;20093;-74
2022/03/07 05:04:21;;;;;;;2.70;1.50;;;;;;;;;;4962028;28;20050;-75
2022/03/07 05:06:55;;;;;;;11.93;1.97;;;;;;;;;;4968253;28;20054;-74
2022/03/07 05:09:21;;;;;;;10.60;2.22;;;;;;;;;;4963329;28;20137;-74
2022/03/07 05:11:47;;;;;;;5.70;1.65;;;;;;;;;;4960670;28;20082;-74
2022/03/07 05:14:15;;;;;;;9.35;2.00;;;;;;;;;;4960390;28;20145;-75
2022/03/07 05:16:41;;;;;;;11.48;2.65;;;;;;;;;;4958705;28;20101;-74
2022/03/07 05:19:07;;;;;;;7.20;2.22;;;;;;;;;;4962166;28;20171;-74
2022/03/07 05:21:36;;;;;;;8.13;2.15;;;;;;;;;;4963164;28;20585;-74
2022/03/07 05:24:03;;;;;;;6.40;2.30;;;;;;;;;;4961164;28;20141;-74
2022/03/07 05:26:29;;;;;;;6.15;2.08;;;;;;;;;;4960226;28;20138;-74
2022/03/07 05:28:56;;;;;;;8.10;2.45;;;;;;;;;;4960602;28;20055;-75
2022/03/07 05:31:23;;;;;;;9.57;2.25;;;;;;;;;;4965072;28;20078;-75
2022/03/07 05:33:49;;;;;;;5.03;2.60;;;;;;;;;;4963614;28;20046;-75
2022/03/07 05:36:16;;;;;;;4.18;2.10;;;;;;;;;;4960177;28;20623;-76
2022/03/07 05:38:42;;;;;;;3.97;1.77;;;;;;;;;;4962128;28;20089;-75
2022/03/07 05:41:09;;;;;;;13.02;3.00;;;;;;;;;;4963263;28;20091;-74
2022/03/07 05:43:36;;;;;;;7.82;2.45;;;;;;;;;;4964297;28;20133;-75
2022/03/07 05:46:02;;;;;;;8.70;2.50;;;;;;;;;;4961661;28;20079;-75
2022/03/07 05:48:29;;;;;;;7.80;2.78;;;;;;;;;;4961169;28;20054;-75
2022/03/07 05:50:55;;;;;;;6.32;2.03;;;;;;;;;;4965567;28;20075;-75
2022/03/07 05:53:23;;;;;;;6.03;3.03;;;;;;;;;;4961701;28;20047;-75
2022/03/07 05:55:49;;;;;;;;;;;;;;;;;;4959455;28;20051;-75
2022/03/07 05:58:23;;;;;;;5.13;2.72;;;;;;;;;;4961977;28;19965;-75
2022/03/07 06:00:49;;;;;;;6.93;2.53;;;;;;;;;;4948245;28;20129;-74
2022/03/07 06:03:15;;;;;;;4.33;2.07;;;;;;;;;;4965260;28;20178;-74
2022/03/07 06:05:49;;;;;;;7.20;2.55;;;;;;;;;;4941169;28;20051;-75
2022/03/07 06:08:17;;;;;;;7.72;2.47;;;;;;;;;;4942374;28;20138;-75
2022/03/07 06:10:44;;;;;;;6.88;2.53;;;;;;;;;;4940774;28;20089;-75
2022/03/07 06:13:11;;;;;;;5.00;2.28;;;;;;;;;;4943446;28;20090;-75
2022/03/07 06:15:43;;;;;;;9.27;2.38;;;;;;;;;;4940329;28;20078;-75
2022/03/07 06:18:10;;;;;;;10.02;2.80;;;;;;;;;;4941005;28;20043;-74
2022/03/07 06:20:39;;;;;;;5.65;2.55;;;;;;;;;;4940497;28;20062;-75
2022/03/07 06:23:05;;;;;;;8.35;2.22;;;;;;;;;;4939490;28;20558;-74
2022/03/07 06:25:35;;;;;;;11.02;2.90;;;;;;;;;;4940636;28;20082;-75
2022/03/07 06:28:09;;;;;;;9.68;2.53;;;;;;;;;;4940752;28;20135;-76
2022/03/07 06:30:35;;;;;;;10.57;3.33;;;;;;;;;;4938616;28;20083;-75
2022/03/07 06:33:02;;;;;;;8.30;2.88;;;;;;;;;;4939275;28;20142;-75
2022/03/07 06:35:28;;;;;;;13.30;2.95;;;;;;;;;;4940163;29;20579;-75
2022/03/07 06:37:55;;;;;;;12.50;3.07;;;;;;;;;;4962916;28;20550;-75
2022/03/07 06:40:22;;;;;;;10.23;2.72;;;;;;;;;;4961281;28;20101;-75
2022/03/07 06:42:55;;;;;;;6.15;2.70;;;;;;;;;;4959604;28;20717;-76
2022/03/07 06:45:21;;;;;;;10.35;2.70;;;;;;;;;;4960401;28;20089;-76
2022/03/07 06:47:48;;;;;;;8.02;2.80;;;;;;;;;;4957226;28;20062;-75
2022/03/07 06:50:15;;;;;;;11.60;3.10;;;;;;;;;;4960260;28;20083;-76
2022/03/07 06:52:42;;;;;;;6.25;2.55;;;;;;;;;;4945504;28;20384;-75
2022/03/07 06:55:08;;;;;;;12.65;3.10;;;;;;;;;;4957810;28;20601;-75
2022/03/07 06:57:42;;;;;;;15.65;3.67;;;;;;;;;;4951046;28;20090;-75
2022/03/07 07:00:10;;;;;;;10.65;3.42;;;;;;;;;;4961680;28;20502;-75
2022/03/07 07:02:36;;;;;;;13.23;3.05;;;;;;;;;;4959784;28;20094;-73
2022/03/07 07:05:10;;;;;;;9.98;3.05;;;;;;;;;;4960729;28;20469;-75
2022/03/07 07:07:37;;;;;;;12.75;2.88;;;;;;;;;;4961438;28;20128;-75
2022/03/07 07:10:04;;;;;;;10.70;3.00;;;;;;;;;;4961435;28;20078;-73
2022/03/07 07:12:31;;;;;;;11.25;3.17;;;;;;;;;;4958604;28;20158;-74
2022/03/07 07:14:58;;;;;;;15.85;3.67;;;;;;;;;;4961945;28;20079;-73
2022/03/07 07:17:24;;;;;;;10.75;2.50;;;;;;;;;;4962433;28;20089;-73
2022/03/07 07:19:57;;;;;;;6.82;2.75;;;;;;;;;;4957372;28;20138;-73
2022/03/07 07:22:24;;;;;;;7.57;2.60;;;;;;;;;;4964925;28;20094;-73
2022/03/07 07:24:54;;;;;;;10.73;2.90;;;;;;;;;;4958848;28;20053;-73
2022/03/07 07:27:21;;;;;;;12.82;3.10;;;;;;;;;;4961881;28;20482;-73
2022/03/07 07:29:48;;;;;;;7.15;2.97;;;;;;;;;;4961061;28;20074;-73
2022/03/07 07:32:14;;;;;;;5.60;2.95;;;;;;;;;;4960108;28;20089;-73
2022/03/07 07:34:48;;;;;;;12.38;3.13;;;;;;;;;;4960079;28;20092;-73
2022/03/07 07:37:14;;;;;;;7.70;2.65;;;;;;;;;;4960695;28;20133;-73
2022/03/07 07:39:45;;;;;;;16.35;3.67;;;;;;;;;;4964412;28;20569;-73
2022/03/07 07:42:18;;;;;;;11.48;3.10;;;;;;;;;;4946252;28;20141;-73
2022/03/07 07:44:45;;;;;;;11.18;2.83;;;;;;;;;;4968552;28;20089;-73
2022/03/07 07:47:11;;;;;;;7.70;2.75;;;;;;;;;;4946706;28;20109;-72
2022/03/07 07:49:38;;;;;;;5.97;2.33;;;;;;;;;;4966764;28;20055;-72
2022/03/07 07:52:11;;;;;;;4.75;2.35;;;;;;;;;;4967200;28;20067;-72
2022/03/07 07:54:38;;;;;;;6.50;2.75;;;;;;;;;;4961367;28;20075;-72
2022/03/07 07:57:07;;;;;;;8.05;2.78;;;;;;;;;;4960909;28;20137;-72
2022/03/07 07:59:33;;;;;;;7.50;2.60;;;;;;;;;;4962359;28;20061;-72
2022/03/07 08:02:06;;;;;;;5.65;2.30;;;;;;;;;;4960548;28;20093;-72
2022/03/07 08:04:33;;;;;;;13.10;2.13;;;;;;;;;;4961818;28;20102;-72
2022/03/07 08:07:06;;;;;;;6.55;2.63;;;;;;;;;;4951395;28;20132;-72
2022/03/07 08:09:35;;;;;;;6.55;2.38;;;;;;;;;;4963684;28;20134;-71
2022/03/07 08:12:01;;;;;;;6.07;2.38;;;;;;;;;;4963933;28;20482;-71
2022/03/07 08:14:27;;;;;;;3.08;2.13;;;;;;;;;;4961895;28;20087;-71
2022/03/07 08:16:54;;;;;;;5.38;2.25;;;;;;;;;;4958984;28;20134;-71
2022/03/07 08:19:20;;;;;;;5.25;2.40;;;;;;;;;;4952595;28;20086;-71
2022/03/07 08:21:53;;;;;;;7.20;2.40;;;;;;;;;;4962964;28;20078;-71
2022/03/07 08:24:20;;;;;;;6.53;2.00;;;;;;;;;;4963692;28;20051;-71
2022/03/07 08:26:46;;;;;;;5.53;2.03;;;;;;;;;;4959881;28;20093;-71
2022/03/07 08:29:14;;;;;;;4.72;1.50;;;;;;;;;;4960406;28;20046;-71
2022/03/07 08:31:40;;;;;;;3.73;2.00;;;;;;;;;;4963880;28;20138;-71
2022/03/07 08:34:07;;;;;;;3.10;1.50;;;;;;;;;;4960926;28;20307;-71
2022/03/07 08:36:33;;;;;;;3.97;1.48;;;;;;;;;;4948216;28;20834;-71
2022/03/07 08:39:00;;;;;;;4.15;1.80;;;;;;;;;;4962788;28;20086;-71
2022/03/07 08:41:26;;;;;;;10.70;2.13;;;;;;;;;;4966708;28;20517;-70
2022/03/07 08:43:54;;;;;;;9.85;2.00;;;;;;;;;;4963195;28;20054;-71
2022/03/07 08:46:22;;;;;;;4.22;1.77;;;;;;;;;;4960178;28;20058;-71
2022/03/07 08:48:49;;;;;;;5.72;1.90;;;;;;;;;;4960066;28;20055;-71
2022/03/07 08:51:15;;;;;;;3.00;1.48;;;;;;;;;;4969367;28;20052;-71
2022/03/07 08:53:42;;;;;;;5.88;2.70;;;;;;;;;;4966463;28;20587;-71
2022/03/07 08:56:09;;;;;;;5.97;1.90;;;;;;;;;;4964587;28;20138;-70
2022/03/07 08:58:57;;;;;;;5.05;1.75;;;;;;;;;;4962532;28;20527;-71
2022/03/07 09:01:24;;;;;;;5.75;1.75;;;;;;;;;;4963089;28;20082;-71
2022/03/07 09:03:57;;;;;;;4.38;2.13;;;;;;;;;;4962902;28;20498;-70
2022/03/07 09:06:24;;;;;;;6.38;2.85;;;;;;;;;;4963018;28;20102;-70
2022/03/07 09:08:51;;;;;;;9.02;3.03;;;;;;;;;;4961722;28;20110;-70
2022/03/07 09:11:43;;;;;;;5.75;2.10;;;;;;;;;;4963515;28;20054;-71
2022/03/07 09:14:10;;;;;;;22.70;7.83;;;;;;;;;;4962057;28;20097;-71
2022/03/07 09:16:36;;;;;;;21.10;6.75;;;;;;;;;;4962012;28;20145;-70
2022/03/07 09:19:03;;;;;;;16.27;6.05;;;;;;;;;;4965247;28;20121;-70
2022/03/07 09:21:30;;;;;;;12.57;5.65;;;;;;;;;;4963073;28;20082;-70
2022/03/07 09:24:04;;;;;;;14.57;5.63;;;;;;;;;;4963680;28;20137;-70
2022/03/07 09:26:31;;;;;;;13.75;4.90;;;;;;;;;;4960502;28;20138;-70
2022/03/07 09:28:57;;;;;;;11.23;4.70;;;;;;;;;;4966271;28;20569;-71
2022/03/07 09:31:24;;;;;;;9.65;3.95;;;;;;;;;;4965379;28;20078;-70
2022/03/07 09:33:50;;;;;;;10.77;4.68;;;;;;;;;;4962716;28;20046;-70
2022/03/07 09:36:17;;;;;;;14.55;6.57;;;;;;;;;;4962863;28;20078;-70
2022/03/07 09:38:50;;;;;;;9.43;5.13;;;;;;;;;;4941923;28;20507;-70
2022/03/07 09:41:17;;;;;;;12.68;4.28;;;;;;;;;;4942377;28;20079;-71
2022/03/07 09:43:44;;;;;;;5.57;2.75;;;;;;;;;;4928345;28;20127;-71
2022/03/07 09:46:12;;;;;;;6.00;2.78;;;;;;;;;;4923273;29;20058;-70
2022/03/07 09:48:39;;;;;;;5.00;2.90;;;;;;;;;;4940774;28;20051;-70
2022/03/07 09:51:06;;;;;;;10.60;2.60;;;;;;;;;;4941059;28;20134;-71
2022/03/07 09:53:39;;;;;;;6.18;2.25;;;;;;;;;;4938104;28;20083;-70
2022/03/07 09:56:05;;;;;;;6.55;2.13;;;;;;;;;;4942705;28;20125;-70
2022/03/07 09:58:32;;;;;;;6.93;2.83;;;;;;;;;;4940754;28;20090;-71
2022/03/07 10:01:08;;;;;;;7.45;2.50;;;;;;;;;;4919938;29;20099;-70
2022/03/07 10:03:35;;;;;;;8.70;2.35;;;;;;;;;;4924935;29;20059;-70
2022/03/07 10:06:02;;;;;;;6.88;2.58;;;;;;;;;;4921907;29;20055;-71
2022/03/07 10:08:29;;;;;;;5.80;2.40;;;;;;;;;;4940639;28;20055;-70
2022/03/07 10:10:56;;;;;;;5.13;2.05;;;;;;;;;;4943307;28;20287;-71
2022/03/07 10:13:23;;;;;;;3.60;2.05;;;;;;;;;;4941083;28;20138;-70
2022/03/07 10:16:01;;;;;;;6.50;1.83;;;;;;;;;;4923464;29;20079;-70
2022/03/07 10:18:28;;;;;;;3.55;1.80;;;;;;;;;;4924541;29;20103;-70
2022/03/07 10:20:57;;;;;;;4.97;1.77;;;;;;;;;;4922417;29;20095;-71
2022/03/07 10:23:27;;;;;;;5.57;2.22;;;;;;;;;;4939950;28;20839;-71
2022/03/07 10:26:04;;;;;;;4.28;1.90;;;;;;;;;;4937611;28;20051;-70
2022/03/07 10:28:35;;;;;;;4.97;1.75;;;;;;;;;;4936035;28;20138;-70
2022/03/07 10:31:14;;;;;;;4.68;1.67;;;;;;;;;;4935376;28;20083;-70
2022/03/07 10:33:41;;;;;;;6.50;2.20;;;;;;;;;;4936591;28;20056;-70
2022/03/07 10:36:07;;;;;;;4.70;1.95;;;;;;;;;;4935038;28;20581;-71
2022/03/07 10:38:34;;;;;;;5.05;2.05;;;;;;;;;;4935847;28;20063;-70
2022/03/07 10:41:01;;;;;;;9.45;4.00;;;;;;;;;;4936737;28;20485;-70
2022/03/07 10:43:28;;;;;;;4.03;1.80;;;;;;;;;;4951199;28;20054;-70
2022/03/07 10:46:00;;;;;;;3.90;1.70;;;;;;;;;;4963427;28;20305;-71
2022/03/07 10:48:28;;;;;;;2.10;1.00;;;;;;;;;;4961735;28;20591;-70
2022/03/07 10:50:58;;;;;;;3.05;1.30;;;;;;;;;;4961925;28;20138;-71
2022/03/07 10:53:25;;;;;;;3.42;1.30;;;;;;;;;;4962632;28;20243;-71
2022/03/07 10:56:00;;;;;;;2.95;1.30;;;;;;;;;;4962753;28;20150;-71
2022/03/07 10:58:26;;;;;;;;;;;;;;;;;;4958064;28;20089;-70
2022/03/07 11:00:54;;;;;;;1.40;0.88;;;;;;;;;;4963277;28;20369;-70
2022/03/07 11:03:25;;;;;;;2.03;1.00;;;;;;;;;;4963536;28;20146;-71
2022/03/07 11:05:52;;;;;;;3.50;0.98;;;;;;;;;;4959642;28;20059;-70
2022/03/07 11:08:20;;;;;;;3.88;1.08;;;;;;;;;;4961880;28;20054;-71
2022/03/07 11:10:54;;;;;;;4.20;1.40;;;;;;;;;;4961332;28;20083;-70
2022/03/07 11:13:26;;;;;;;6.13;2.88;;;;;;;;;;4958912;28;20591;-71
2022/03/07 11:15:57;;;;;;;2.20;0.80;;;;;;;;;;4958997;28;20051;-71
2022/03/07 11:18:26;;;;;;;2.55;1.63;;;;;;;;;;4958000;28;20051;-71
2022/03/07 11:20:54;;;;;;;3.83;1.45;;;;;;;;;;4955434;28;20109;-71
2022/03/07 11:23:21;;;;;;;2.78;1.10;;;;;;;;;;4960968;28;20126;-70
2022/03/07 11:25:51;;;;;;;1.50;0.95;;;;;;;;;;4960419;28;20086;-70
2022/03/07 11:28:24;;;;;;;3.53;1.35;;;;;;;;;;4937843;28;20077;-70
2022/03/07 11:30:50;;;;;;;;;;;;;;;;;;4942448;28;20056;-71
2022/03/07 11:33:18;;;;;;;2.05;0.90;;;;;;;;;;4940107;28;19929;-70
2022/03/07 11:35:52;;;;;;;3.97;0.90;;;;;;;;;;4941516;28;20048;-70
2022/03/07 11:38:24;;;;;;;0.68;0.57;;;;;;;;;;4941228;28;20063;-70
2022/03/07 11:41:10;;;;;;;1.60;0.82;;;;;;;;;;4937069;28;20090;-70
2022/03/07 11:43:48;;;;;;;3.08;0.85;;;;;;;;;;4939890;28;20142;-70
2022/03/07 11:46:24;;;;;;;4.25;0.90;;;;;;;;;;4933298;28;20419;-70
2022/03/07 11:48:51;;;;;;;3.65;0.70;;;;;;;;;;4932828;28;20051;-70
2022/03/07 11:51:22;;;;;;;3.30;1.10;;;;;;;;;;4933298;28;20566;-70
2022/03/07 11:53:50;;;;;;;2.40;1.23;;;;;;;;;;4933057;28;20598;-70
2022/03/07 11:56:22;;;;;;;1.55;0.98;;;;;;;;;;4932000;28;20126;-71
2022/03/07 11:58:54;;;;;;;2.95;1.20;;;;;;;;;;4932978;28;20142;-70
2022/03/07 12:01:26;;;;;;;2.53;1.10;;;;;;;;;;4934019;28;20423;-70
2022/03/07 12:03:53;;;;;;;2.15;1.33;;;;;;;;;;4932479;28;20059;-70
2022/03/07 12:06:21;;;;;;;2.70;1.10;;;;;;;;;;4933856;28;20058;-71
2022/03/07 12:08:50;;;;;;;3.03;0.90;;;;;;;;;;4932223;28;20875;-71
2022/03/07 12:11:26;;;;;;;3.00;1.00;;;;;;;;;;4934576;28;20134;-70
2022/03/07 12:13:53;;;;;;;2.28;1.30;;;;;;;;;;4934453;28;20130;-70
2022/03/07 12:16:23;;;;;;;3.45;1.00;;;;;;;;;;4935348;28;20083;-70
2022/03/07 12:19:24;;;;;;;4.20;1.25;;;;;;;;;;4934449;28;20269;-70
2022/03/07 12:21:52;;;;;;;1.13;0.77;;;;;;;;;;4919850;28;20066;-70
2022/03/07 12:24:20;;;;;;;5.15;1.50;;;;;;;;;;4938967;28;21300;-70
2022/03/07 12:26:46;;;;;;;1.85;1.17;;;;;;;;;;4956068;28;20063;-71
2022/03/07 12:29:13;;;;;;;4.70;0.93;;;;;;;;;;4956423;28;20082;-71
2022/03/07 12:31:47;;;;;;;2.22;0.95;;;;;;;;;;4957338;28;20816;-70
2022/03/07 12:34:17;;;;;;;3.33;1.23;;;;;;;;;;4956912;28;20137;-71
2022/03/07 12:36:44;;;;;;;4.22;1.60;;;;;;;;;;4956473;28;20054;-71
2022/03/07 12:39:11;;;;;;;3.15;0.98;;;;;;;;;;4956130;28;20462;-71
2022/03/07 12:41:39;;;;;;;3.53;1.10;;;;;;;;;;4956431;28;20057;-71
2022/03/07 12:44:06;;;;;;;3.28;1.23;;;;;;;;;;4954147;28;20100;-70
2022/03/07 12:46:33;;;;;;;3.13;1.30;;;;;;;;;;4957801;28;22347;-70
2022/03/07 12:48:59;;;;;;;2.25;1.08;;;;;;;;;;4957369;28;20058;-71
2022/03/07 12:51:26;;;;;;;2.40;0.90;;;;;;;;;;4957116;28;20086;-70
2022/03/07 12:53:54;;;;;;;3.80;1.23;;;;;;;;;;4958193;28;20126;-71
2022/03/07 12:56:22;;;;;;;5.60;0.75;;;;;;;;;;4955641;28;20360;-70
2022/03/07 12:58:54;;;;;;;1.67;0.77;;;;;;;;;;4956069;28;20146;-71
2022/03/07 13:01:21;;;;;;;3.25;0.90;;;;;;;;;;4940164;28;20050;-71
2022/03/07 13:03:52;;;;;;;4.38;1.13;;;;;;;;;;4957428;28;20055;-71
2022/03/07 13:06:22;;;;;;;1.20;0.95;;;;;;;;;;4959014;28;20053;-71
2022/03/07 13:08:52;;;;;;;2.25;1.10;;;;;;;;;;4939260;28;20166;-70
2022/03/07 13:11:29;;;;;;;4.68;1.45;;;;;;;;;;4936560;28;20048;-70
2022/03/07 13:13:56;;;;;;;3.85;1.30;;;;;;;;;;4938437;28;20141;-70
2022/03/07 13:16:23;;;;;;;2.33;0.85;;;;;;;;;;4938435;28;20048;-70
2022/03/07 13:19:09;;;;;;;3.80;1.20;;;;;;;;;;4957875;28;20054;-70
2022/03/07 13:21:36;;;;;;;1.40;1.00;;;;;;;;;;4956700;28;20051;-70
2022/03/07 13:24:04;;;;;;;4.32;1.00;;;;;;;;;;4957572;28;20141;-71
2022/03/07 13:26:31;;;;;;;2.53;1.40;;;;;;;;;;4955674;28;20163;-70
2022/03/07 13:29:13;;;;;;;7.10;1.50;;;;;;;;;;4957558;28;20201;-71
2022/03/07 13:31:44;;;;;;;2.50;1.40;;;;;;;;;;4957010;28;20576;-70
2022/03/07 13:34:14;;;;;;;3.17;1.25;;;;;;;;;;4936208;28;20125;-70
2022/03/07 13:36:51;;;;;;;2.95;1.23;;;;;;;;;;4937322;28;20141;-70
2022/03/07 13:39:21;;;;;;;2.45;1.30;;;;;;;;;;4953517;28;20146;-71
2022/03/07 13:41:47;;;;;;;;;;;;;;;;;;4954986;28;20501;-70
2022/03/07 13:44:13;;;;;;;3.47;1.40;;;;;;;;;;4955483;28;19969;-70
2022/03/07 13:46:50;;;;;;;2.40;1.05;;;;;;;;;;4956805;28;20162;-70
2022/03/07 13:49:16;;;;;;;2.85;1.20;;;;;;;;;;4957668;28;20047;-70
2022/03/07 13:51:43;;;;;;;1.77;0.85;;;;;;;;;;4956283;28;20102;-70
2022/03/07 13:54:10;;;;;;;1.70;1.20;;;;;;;;;;4957833;28;20148;-70
2022/03/07 13:56:36;;;;;;;2.45;1.10;;;;;;;;;;4957103;28;20207;-71
2022/03/07 13:59:16;;;;;;;6.60;1.30;;;;;;;;;;4955643;28;20137;-70
2022/03/07 14:01:42;;;;;;;2.47;1.23;;;;;;;;;;4957418;28;20133;-70
2022/03/07 14:04:14;;;;;;;4.55;1.20;;;;;;;;;;4937031;28;20054;-70
2022/03/07 14:06:44;;;;;;;2.97;1.50;;;;;;;;;;4937260;28;20511;-71
2022/03/07 14:09:30;;;;;;;;;;;;;;;;;;4956147;28;20498;-71
2022/03/07 14:11:59;;;;;;;5.68;1.30;;;;;;;;;;4955838;28;19930;-70
2022/03/07 14:14:26;;;;;;;3.80;1.20;;;;;;;;;;4956958;28;20142;-70
2022/03/07 14:16:53;;;;;;;1.85;1.02;;;;;;;;;;4953843;28;20173;-70
2022/03/07 14:19:22;;;;;;;2.03;1.15;;;;;;;;;;4954254;28;20051;-70
2022/03/07 14:21:51;;;;;;;2.83;1.17;;;;;;;;;;4953695;28;20078;-70
2022/03/07 14:24:17;;;;;;;5.63;1.33;;;;;;;;;;4953576;28;20051;-70
2022/03/07 14:26:47;;;;;;;4.07;0.98;;;;;;;;;;4953079;28;20053;-70
2022/03/07 14:29:15;;;;;;;2.60;0.80;;;;;;;;;;4953859;28;20154;-70
2022/03/07 14:31:41;;;;;;;2.83;1.10;;;;;;;;;;4953839;28;20410;-70
2022/03/07 14:34:08;;;;;;;2.90;1.10;;;;;;;;;;4953570;28;20061;-70
2022/03/07 14:36:36;;;;;;;6.72;1.27;;;;;;;;;;4953890;28;20102;-70
2022/03/07 14:39:05;;;;;;;4.57;1.40;;;;;;;;;;4954022;28;20062;-70
2022/03/07 14:41:31;;;;;;;4.30;1.58;;;;;;;;;;4954903;28;20503;-70
2022/03/07 14:44:18;;;;;;;2.00;1.45;;;;;;;;;;4955068;28;20182;-70
2022/03/07 14:46:45;;;;;;;2.75;1.23;;;;;;;;;;4953255;28;20055;-70
2022/03/07 14:49:11;;;;;;;2.47;1.35;;;;;;;;;;4958708;28;20495;-70
2022/03/07 14:51:38;;;;;;;3.65;1.20;;;;;;;;;;4958635;28;20051;-70